Terminal Aerodrome Forecast
Issued by NWS Wilmington, OH

Home | Current Version | Previous Version | Text Only | Print | Product List | Glossary On
Versions: 1 2 3 4 5 6 7 8 9 10 11 12 13 14 15 16 17 18 19 20 21 22 23 24
000
FTUS41 KILN 271100
TAFDAY
TAF
KDAY 271133Z 2712/2812 32010KT 6SM BR BKN012 BKN025
     FM271300 31010KT P6SM OVC015
     FM271500 31011KT P6SM OVC025
     FM271700 30012G20KT P6SM VCSH BKN035
     FM280000 29010KT P6SM VCSH OVC025
     FM280600 29005KT P6SM BKN025=

USA.gov is the U.S. government's official web portal to all federal, state and local government web resources and services.